HOURLY OBS INDEX

031

North Coast - Barron

CAIRNS AERO

Site: 031011
Alt: 2.2m
5km NNW of CAIRNS


  Time     Wind        Temp  DP   Baro     Rain since   Rain past  Vis(m), Cloud(base in m), Weather
  local        km/h                         9am  last   hr   10m    
Sun 20:00  SSE 15/ 20  22.1 16.4  1017.6    0.0   0.0   0.0   0.0   10000|OC1260 
Sun 20:30  SSE 13/ 19  21.0 16.8  1017.9    0.0   0.0   0.0   0.0   10000|SC1320 
Sun 21:00  SSE 15/ 19  20.9 16.7  1018.1    0.0   0.0   0.0   0.0   10000 
Sun 21:30    S 11/ 17  20.9 15.9  1018.2    0.0   0.0   0.0   0.0   10000 
Sun 22:00    S  9/ 15  21.0 16.2  1018.2    0.0   0.0   0.0   0.0   10000 
Sun 22:30    S 11/ 17  20.7 16.3  1018.0    0.0   0.0   0.0   0.0   10000 
Sun 23:00    S  9/ 15  20.4 16.4  1017.8    0.0   0.0   0.0   0.0   10000 
Sun 23:30  SSE 13/ 17  19.7 16.7  1017.7    0.0   0.0   0.0   0.0   10000 
Mon 00:00  SSE 13/ 15  19.5 16.7  1017.7    0.0   0.0   0.0   0.0   10000 
Mon 00:30    S  9/ 11  19.1 16.1  1017.6    0.0   0.0   0.0   0.0   10000 
Mon 01:00  SSE  9/ 17  19.0 16.0  1017.4    0.0   0.0   0.0   0.0   10000 

CAIRNS RACECOURSE

Site: 031222
Alt: 4.1m
km of


  Time     Wind        Temp  DP   Baro     Rain since   Rain past  Vis(m), Cloud(base in m), Weather
  local        km/h                         9am  last   hr   10m    
Sun 20:00  ESE  7/  7  21.6 15.7  ------    0.0   0.0   0.0   0.0   10000|OC1230 
Sun 20:30  ESE  4/  7  19.9 15.5  ------    0.0   0.0   0.0   0.0   10000|SC1230 
Sun 21:00  SSW  4/ 11  18.9 15.2  ------    0.0   0.0   0.0   0.0   10000 
Sun 21:30   SW  7/  9  19.7 16.0  ------    0.0   0.0   0.0   0.0   10000 
Sun 22:00  SSW  7/ 11  19.6 16.3  ------    0.0   0.0   0.0   0.0   10000 
Sun 22:30  SSW  7/  9  19.7 16.5  ------    0.0   0.0   0.0   0.0   10000 
Sun 23:00  SSE  7/ 11  19.4 16.6  ------    0.0   0.0   0.0   0.0   10000 
Sun 23:30   SE  7/  7  18.5 16.7  ------    0.0   0.0   0.0   0.0   10000 
Mon 00:00   SE  2/  6  17.6 15.9  ------    0.0   0.0   0.0   0.0   10000 
Mon 00:30  SSE  6/  7  17.4 16.3  ------    0.0   0.0   0.0   0.0   10000 
Mon 01:00    S  7/  9  16.5 15.2  ------    0.0   0.0   0.0   0.0   10000 

CAPE FLATTERY

Site: 031213
Alt: 18.5m
58km N of COOKTOWN


  Time     Wind        Temp  DP   Baro     Rain since   Rain past  Vis(m), Cloud(base in m), Weather
  local        km/h                         9am  last   hr   10m    
Sun 20:00   SE 20/ 30  22.6 19.6  1017.1    0.0   0.0   0.0   0.0   ----- 
Sun 20:30   SE 19/ 28  22.5 19.5  1017.5    0.0   0.0   0.0   0.0   ----- 
Sun 21:00   SE 20/ 28  22.6 18.4  1017.4    0.0   0.0   0.0   0.0   ----- 
Sun 21:30   SE 20/ 30  22.5 18.7  1017.2    0.0   0.0   0.0   0.0   ----- 
Sun 22:00   SE 22/ 28  22.5 18.5  1017.2    0.0   0.0   0.0   0.0   ----- 
Sun 22:30   SE 19/ 26  22.4 18.6  1017.2    0.0   0.0   0.0   0.0   ----- 
Sun 23:00   SE 20/ 26  22.3 18.3  1017.1    0.0   0.0   0.0   0.0   ----- 
Sun 23:30   SE 19/ 26  22.3 18.3  1017.0    0.0   0.0   0.0   0.0   ----- 
Mon 00:00   SE 19/ 24  22.4 19.0  1016.9    0.0   0.0   0.0   0.0   ----- 
Mon 00:30   SE 22/ 30  22.4 18.0  1016.9    0.0   0.0   0.0   0.0   ----- 
Mon 01:00   SE 17/ 26  22.1 17.7  1016.7    0.0   0.0   0.0   0.0   ----- 

COOKTOWN AIRPORT

Site: 031209
Alt: 4.8m
8km WNW of COOKTOWN


  Time     Wind        Temp  DP   Baro     Rain since   Rain past  Vis(m), Cloud(base in m), Weather
  local        km/h                         9am  last   hr   10m    
Sun 20:00  ESE 19/ 26  22.6 19.2  1017.1    0.0   0.0   0.0   0.0   10000|BR 630 BR 750 BR 900 
Sun 20:30   SE 17/ 22  22.5 19.3  1017.3    0.0   0.0   0.0   0.0   10000|SC 570 BR 750 
Sun 20:57   SE 17/ 24  22.7 19.5  1017.4    0.0   0.0  ----   0.0   10000|BR 570 BR 750 
Sun 21:00   SE 17/ 26  22.6 19.4  1017.5    0.0   0.0   0.0   0.0   10000|SC 570 BR 750 
Sun 21:10   SE 15/ 20  22.6 19.6  1017.4    0.0   0.0  ----   0.0   10000|SC 510 BR 660 BR 810 
Sun 21:30  ESE 17/ 24  22.6 19.4  1017.4    0.0   0.0   0.0   0.0   10000|SC 570 BR 690 BR 810 
Sun 22:00   SE 17/ 24  22.5 19.1  1017.3    0.0   0.0   0.0   0.0   10000|SC 630 BR 720 
Sun 22:30  ESE 17/ 28  22.5 18.3  1017.3    0.0   0.0   0.0   0.0   10000|SC 660 SC 780 
Sun 23:00   SE 15/ 24  22.2 19.2  1017.1    0.0   0.0   0.0   0.0   10000|SC 480 SC 660 
Sun 23:30   SE 17/ 24  22.2 18.2  1017.0    0.0   0.0   0.0   0.0   10000 
Mon 00:00   SE 13/ 20  22.0 18.0  1017.0    0.0   0.0   0.0   0.0   10000|SC 720 
Mon 00:30  ESE 17/ 24  22.1 17.9  1016.9    0.0   0.0   0.0   0.0   10000 
Mon 01:00   SE 17/ 26  22.2 17.8  1016.7    0.0   0.0   0.0   0.0   10000|BR 810 BR 990 

LOW ISLES LIGHTHOUSE

Site: 031037
Alt: 2.9m
63km NNW of CAIRNS


  Time     Wind        Temp  DP   Baro     Rain since   Rain past  Vis(m), Cloud(base in m), Weather
  local        km/h                         9am  last   hr   10m    
Sun 20:00  ESE 20/ 26  23.0 18.7  1017.6    0.0   0.0   0.0   0.0   ----- 
Sun 20:30  ESE 20/ 26  23.0 18.3  1017.9    0.0   0.0   0.0   0.0   ----- 
Sun 21:00  ESE 22/ 26  23.0 18.7  1018.0    0.0   0.0   0.0   0.0   ----- 
Sun 21:30   SE 22/ 26  22.8 19.4  1018.0    0.0   0.0   0.0   0.0   ----- 
Sun 22:00   SE 20/ 24  22.6 19.0  1018.1    0.0   0.0   0.0   0.0   ----- 
Sun 22:30  SSE 20/ 22  22.5 19.7  1017.9    0.0   0.0   0.0   0.0   ----- 
Sun 23:00  SSE 20/ 24  22.2 19.4  1017.8    0.0   0.0   0.0   0.0   ----- 
Sun 23:30  SSE 19/ 20  22.0 18.6  1017.6    0.0   0.0   0.0   0.0   ----- 
Mon 00:00  SSE 17/ 19  22.0 18.6  1017.6    0.0   0.0   0.0   0.0   ----- 
Mon 00:30  SSE 17/ 20  21.9 18.5  1017.5    0.0   0.0   0.0   0.0   ----- 
Mon 01:00  SSE 17/ 19  21.9 18.5  1017.3    0.0   0.0   0.0   0.0   ----- 

MAREEBA AIRPORT

Site: 031210
Alt: 471.9m
40km WSW of CAIRNS


  Time     Wind        Temp  DP   Baro     Rain since   Rain past  Vis(m), Cloud(base in m), Weather
  local        km/h                         9am  last   hr   10m    
Sun 20:00    N  6/  9  18.5 15.9  1019.0    0.0   0.0   0.0   0.0   ----- 
Sun 20:30    S 13/ 20  19.2 15.7  1019.3    0.0   0.0   0.0   0.0   ----- 
Sun 21:00  SSE 20/ 30  19.3 15.2  1019.4    0.0   0.0   0.0   0.0   ----- 
Sun 21:30    E  7/  9  18.4 14.5  1019.6    0.0   0.0   0.0   0.0   ----- 
Sun 22:00  NNE  6/  9  17.4 15.2  1019.6    0.0   0.0   0.0   0.0   ----- 
Sun 22:30  NNE  2/  7  16.4 14.2  1019.6    0.0   0.0   0.0   0.0   ----- 
Sun 23:00   NE  6/  9  16.3 13.0  1019.3    0.0   0.0   0.0   0.0   ----- 
Sun 23:30  SSE 15/ 19  16.4 13.3  1019.2    0.0   0.0   0.0   0.0   ----- 
Mon 00:00  SSE 17/ 22  16.4 13.5  1019.2    0.0   0.0   0.0   0.0   ----- 
Mon 00:30   SE 17/ 22  16.1 13.4  1019.1    0.0   0.0   0.0   0.0   ----- 
Mon 01:00   SE 15/ 20  15.8 13.3  1019.1    0.0   0.0   0.0   0.0   -----